Time;durP1;ratioP1;P1;durP2;ratioP2;P2;SDS_P1;SDS_P2;PMS_P1;PMS_P2;Temp;Humidity;BMP_temperature;BMP_pressure;BME280_temperature;BME280_humidity;BME280_pressure;Samples;Min_cycle;Max_cycle;Signal;HPM_P1;HPM_P2
2023/06/15 00:01:50;;;;;;;3.37;3.10;;;25.60;47.90;;;;;;6183608;23;20371;-71
2023/06/15 00:04:16;;;;;;;3.40;3.10;;;25.60;47.90;;;;;;6183718;23;20770;-70
2023/06/15 00:06:41;;;;;;;3.27;2.97;;;25.50;47.90;;;;;;6182238;23;20888;-71
2023/06/15 00:09:07;;;;;;;3.33;3.03;;;25.50;47.90;;;;;;6183675;23;20383;-70
2023/06/15 00:11:32;;;;;;;3.50;3.20;;;25.50;48.00;;;;;;6183581;23;20172;-71
2023/06/15 00:13:58;;;;;;;3.40;3.10;;;25.50;48.10;;;;;;6183850;23;20171;-71
2023/06/15 00:16:30;;;;;;;3.40;3.10;;;25.50;48.00;;;;;;6183730;23;20168;-71
2023/06/15 00:19:02;;;;;;;3.67;3.03;;;25.50;47.90;;;;;;6182591;23;20155;-71
2023/06/15 00:21:30;;;;;;;3.37;2.80;;;25.50;47.90;;;;;;6183815;23;20433;-71
2023/06/15 00:23:56;;;;;;;3.27;2.97;;;25.50;47.90;;;;;;6183787;23;20375;-71
2023/06/15 00:26:21;;;;;;;3.40;3.10;;;25.50;47.90;;;;;;6183501;23;20398;-71
2023/06/15 00:28:47;;;;;;;3.50;3.20;;;25.50;47.80;;;;;;6184069;23;20166;-71
2023/06/15 00:31:12;;;;;;;3.83;2.90;;;25.50;47.70;;;;;;6184113;23;20528;-71
2023/06/15 00:33:38;;;;;;;3.70;3.40;;;25.50;47.60;;;;;;6185558;23;20151;-71
2023/06/15 00:36:07;;;;;;;3.60;3.13;;;25.50;47.70;;;;;;6185451;23;20249;-71
2023/06/15 00:38:33;;;;;;;3.00;2.70;;;25.50;47.70;;;;;;6185620;23;20148;-71
2023/06/15 00:40:58;;;;;;;3.37;3.07;;;25.50;47.80;;;;;;6185356;23;20449;-71
2023/06/15 00:43:24;;;;;;;3.23;2.93;;;25.50;47.70;;;;;;6158751;23;20160;-71
2023/06/15 00:45:49;;;;;;;3.50;3.20;;;25.50;47.80;;;;;;6185426;23;20259;-71
2023/06/15 00:48:15;;;;;;;3.67;3.37;;;25.50;47.80;;;;;;6185874;23;20152;-71
2023/06/15 00:50:41;;;;;;;3.10;2.80;;;25.50;47.80;;;;;;6185454;23;20155;-71
2023/06/15 00:53:09;;;;;;;2.70;2.50;;;25.50;47.70;;;;;;6185296;23;20168;-71
2023/06/15 00:55:36;;;;;;;3.63;3.33;;;25.50;47.70;;;;;;6185169;23;20776;-71
2023/06/15 00:58:03;;;;;;;2.87;2.67;;;25.50;47.80;;;;;;6185368;23;20367;-71
2023/06/15 01:00:33;;;;;;;3.40;3.10;;;25.50;47.80;;;;;;6158984;23;20387;-71
2023/06/15 01:03:04;;;;;;;3.43;3.13;;;25.50;47.90;;;;;;6185383;23;20379;-71
2023/06/15 01:05:32;;;;;;;3.30;3.10;;;25.50;47.90;;;;;;6185210;23;20502;-71
2023/06/15 01:08:01;;;;;;;3.93;3.37;;;25.40;47.90;;;;;;6185352;23;20926;-71
2023/06/15 01:10:31;;;;;;;4.67;3.40;;;25.40;47.90;;;;;;6185133;23;20771;-71
2023/06/15 01:12:57;;;;;;;3.47;3.13;;;25.50;48.10;;;;;;6184985;23;20574;-70
2023/06/15 01:15:24;;;;;;;3.13;2.93;;;25.50;48.10;;;;;;6185226;23;20905;-71
2023/06/15 01:17:55;;;;;;;3.63;3.33;;;25.50;48.10;;;;;;6185512;23;20715;-71
2023/06/15 01:20:25;;;;;;;2.93;2.73;;;25.50;48.00;;;;;;6185041;23;20358;-71
2023/06/15 01:23:28;;;;;;;3.17;2.87;;;25.40;47.90;;;;;;6185184;23;20877;-71
2023/06/15 01:25:57;;;;;;;3.70;3.40;;;25.50;48.00;;;;;;6185076;23;20490;-71
2023/06/15 01:28:24;;;;;;;3.97;3.67;;;25.40;47.90;;;;;;6185376;23;20754;-71
2023/06/15 01:30:55;;;;;;;3.03;2.80;;;25.40;47.90;;;;;;6185021;23;20491;-71
2023/06/15 01:33:22;;;;;;;4.27;3.47;;;25.40;47.80;;;;;;6184906;23;20906;-71
2023/06/15 01:35:48;;;;;;;3.80;3.50;;;25.40;47.80;;;;;;6184890;23;20483;-71
2023/06/15 01:38:15;;;;;;;3.37;3.07;;;25.40;47.70;;;;;;6185007;23;20394;-71
2023/06/15 01:40:44;;;;;;;3.40;3.10;;;25.40;47.80;;;;;;6184845;23;20152;-71
2023/06/15 01:43:19;;;;;;;3.80;3.50;;;25.40;47.90;;;;;;6184348;23;20433;-71
2023/06/15 01:45:46;;;;;;;3.33;3.13;;;25.40;47.90;;;;;;6184833;23;20469;-71
2023/06/15 01:48:12;;;;;;;3.67;3.37;;;25.40;47.90;;;;;;6184814;23;20379;-71
2023/06/15 01:50:40;;;;;;;3.70;3.40;;;25.40;47.90;;;;;;6184852;23;20449;-71
2023/06/15 01:53:06;;;;;;;3.40;3.10;;;25.40;47.90;;;;;;6184737;23;20418;-71
2023/06/15 01:55:31;;;;;;;3.90;3.50;;;25.40;47.80;;;;;;6184505;23;20762;-71
2023/06/15 01:57:57;;;;;;;3.63;3.33;;;25.40;47.90;;;;;;6184753;23;20147;-71
2023/06/15 02:00:24;;;;;;;3.60;3.30;;;25.40;47.80;;;;;;6184766;23;20238;-71
2023/06/15 02:02:50;;;;;;;4.23;3.47;;;25.40;47.70;;;;;;6184750;23;20630;-71
2023/06/15 02:05:15;;;;;;;3.53;3.23;;;25.40;47.50;;;;;;6184602;23;20395;-71
2023/06/15 02:07:41;;;;;;;3.63;3.33;;;25.40;47.50;;;;;;6184711;23;20175;-71
2023/06/15 02:10:07;;;;;;;3.47;3.17;;;25.40;47.60;;;;;;6184512;23;20152;-71
2023/06/15 02:12:33;;;;;;;4.20;3.10;;;25.40;47.70;;;;;;6184836;23;20242;-71
2023/06/15 02:15:01;;;;;;;3.40;3.10;;;25.40;47.70;;;;;;6184491;23;20391;-71
2023/06/15 02:17:30;;;;;;;3.80;3.43;;;25.40;47.70;;;;;;6184510;23;20375;-71
2023/06/15 02:19:56;;;;;;;3.90;3.50;;;25.40;47.70;;;;;;6184566;23;20375;-71
2023/06/15 02:22:22;;;;;;;3.57;3.27;;;25.40;47.60;;;;;;6184450;23;20371;-71
2023/06/15 02:24:48;;;;;;;3.67;3.37;;;25.40;47.60;;;;;;6184434;23;20437;-71
2023/06/15 02:27:14;;;;;;;3.70;3.40;;;25.40;47.60;;;;;;6184471;23;20375;-71
2023/06/15 02:29:40;;;;;;;3.80;3.50;;;25.40;47.50;;;;;;6184521;23;20374;-71
2023/06/15 02:32:06;;;;;;;3.60;3.30;;;25.40;47.50;;;;;;6184347;23;20174;-71
2023/06/15 02:34:32;;;;;;;3.60;3.30;;;25.40;47.40;;;;;;6157915;23;20176;-69
2023/06/15 02:36:58;;;;;;;3.57;3.27;;;25.30;47.40;;;;;;6157799;23;20394;-71
2023/06/15 02:39:24;;;;;;;4.17;3.57;;;25.40;47.40;;;;;;6184076;23;20390;-72
2023/06/15 02:41:50;;;;;;;3.70;3.40;;;25.40;47.40;;;;;;6157979;23;20391;-71
2023/06/15 02:44:15;;;;;;;3.60;3.30;;;25.30;47.30;;;;;;6184541;23;20144;-71
2023/06/15 02:46:42;;;;;;;3.43;3.13;;;25.30;47.40;;;;;;6184356;23;20159;-71
2023/06/15 02:49:08;;;;;;;2.80;2.60;;;25.30;47.30;;;;;;6157867;23;20152;-71
2023/06/15 02:51:34;;;;;;;3.53;3.23;;;25.30;47.20;;;;;;6184355;23;20498;-71
2023/06/15 02:54:00;;;;;;;3.60;3.30;;;25.30;47.20;;;;;;6184100;23;20374;-71
2023/06/15 02:56:29;;;;;;;3.40;3.20;;;25.30;47.20;;;;;;6184022;23;20897;-71
2023/06/15 02:58:55;;;;;;;4.40;3.93;;;25.30;47.20;;;;;;6184227;23;20147;-71
2023/06/15 03:01:21;;;;;;;4.40;4.07;;;25.30;47.20;;;;;;6157568;23;20954;-71
2023/06/15 03:03:47;;;;;;;4.00;3.60;;;25.30;47.30;;;;;;6158188;23;20148;-71
2023/06/15 03:06:14;;;;;;;3.40;3.10;;;25.30;47.40;;;;;;6184174;23;20391;-71
2023/06/15 03:08:41;;;;;;;3.40;3.10;;;25.30;47.40;;;;;;6184177;23;20399;-71
2023/06/15 03:11:06;;;;;;;3.20;3.00;;;25.30;47.50;;;;;;6184049;23;20962;-71
2023/06/15 03:13:32;;;;;;;3.77;3.47;;;25.30;47.60;;;;;;6184115;23;20375;-70
2023/06/15 03:16:01;;;;;;;3.67;3.37;;;25.30;47.60;;;;;;6184006;23;20168;-71
2023/06/15 03:18:28;;;;;;;4.10;3.37;;;25.30;47.50;;;;;;6184050;23;20542;-71
2023/06/15 03:20:54;;;;;;;4.20;3.50;;;25.30;47.50;;;;;;6184065;23;20371;-71
2023/06/15 03:23:20;;;;;;;3.70;3.40;;;25.30;47.40;;;;;;6183872;23;20381;-71
2023/06/15 03:25:45;;;;;;;3.33;3.03;;;25.30;47.30;;;;;;6183957;23;20390;-71
2023/06/15 03:28:11;;;;;;;3.30;3.00;;;25.30;47.40;;;;;;6184088;23;20210;-71
2023/06/15 03:30:40;;;;;;;3.80;3.50;;;25.30;47.40;;;;;;6183995;23;20152;-71
2023/06/15 03:33:07;;;;;;;3.90;3.60;;;25.30;47.30;;;;;;6183839;23;20195;-71
2023/06/15 03:35:34;;;;;;;3.70;3.40;;;25.30;47.20;;;;;;6157597;23;20469;-71
2023/06/15 03:38:00;;;;;;;3.60;3.30;;;25.30;47.20;;;;;;6183885;23;20429;-70
2023/06/15 03:40:25;;;;;;;3.63;3.33;;;25.30;47.20;;;;;;6184240;23;20379;-71
2023/06/15 03:42:51;;;;;;;3.80;3.50;;;25.30;47.20;;;;;;6183765;23;20151;-71
2023/06/15 03:45:18;;;;;;;3.40;3.10;;;25.30;47.20;;;;;;6183927;23;20171;-71
2023/06/15 03:47:46;;;;;;;3.87;3.47;;;25.30;47.10;;;;;;6184215;23;20503;-71
2023/06/15 03:50:12;;;;;;;3.40;2.83;;;25.30;47.20;;;;;;6183993;23;20371;-71
2023/06/15 03:52:38;;;;;;;4.10;3.70;;;25.30;47.20;;;;;;6183906;23;20419;-71
2023/06/15 03:55:04;;;;;;;3.47;3.17;;;25.30;47.20;;;;;;6183325;23;20250;-71
2023/06/15 03:57:29;;;;;;;3.50;3.20;;;25.30;47.20;;;;;;6183896;23;20611;-71
2023/06/15 03:59:55;;;;;;;3.07;2.80;;;25.30;47.20;;;;;;6183854;23;20371;-71
2023/06/15 04:02:21;;;;;;;3.53;3.23;;;25.30;47.90;;;;;;6183855;23;20156;-71
2023/06/15 04:04:46;;;;;;;3.70;3.40;;;25.30;47.40;;;;;;6183773;23;20172;-71
2023/06/15 04:07:12;;;;;;;3.57;3.27;;;25.30;47.50;;;;;;6158983;23;20610;-71
2023/06/15 04:09:38;;;;;;;4.03;3.60;;;25.40;47.50;;;;;;6185744;23;20202;-70
2023/06/15 04:12:04;;;;;;;5.77;3.93;;;25.40;47.50;;;;;;6185691;23;20182;-71
2023/06/15 04:14:30;;;;;;;3.33;3.03;;;25.40;47.50;;;;;;6185760;23;20168;-71
2023/06/15 04:16:55;;;;;;;3.70;3.40;;;25.40;47.60;;;;;;6159381;23;20383;-71
2023/06/15 04:19:22;;;;;;;4.30;3.50;;;25.40;47.60;;;;;;6185467;23;20385;-71
2023/06/15 04:21:48;;;;;;;3.50;3.20;;;25.40;47.60;;;;;;6185661;23;20148;-70
2023/06/15 04:24:14;;;;;;;3.70;3.37;;;25.40;47.60;;;;;;6159052;23;20739;-70
2023/06/15 04:26:41;;;;;;;3.63;3.33;;;25.40;47.60;;;;;;6185739;23;20418;-70
2023/06/15 04:29:07;;;;;;;3.20;2.80;;;25.40;47.70;;;;;;6185697;23;20398;-70
2023/06/15 04:31:33;;;;;;;3.40;2.93;;;25.40;47.70;;;;;;6185355;23;20411;-71
2023/06/15 04:34:00;;;;;;;3.80;3.50;;;25.40;47.70;;;;;;6185737;23;20178;-70
2023/06/15 04:36:27;;;;;;;5.07;3.43;;;25.40;47.70;;;;;;6185572;23;20395;-71
2023/06/15 04:38:53;;;;;;;3.50;3.20;;;25.40;47.50;;;;;;6185868;23;20375;-71
2023/06/15 04:41:22;;;;;;;4.00;3.60;;;25.40;47.60;;;;;;6185126;23;20421;-71
2023/06/15 04:43:48;;;;;;;4.10;3.80;;;25.40;47.70;;;;;;6184973;23;20375;-71
2023/06/15 04:46:17;;;;;;;3.80;3.27;;;25.40;47.80;;;;;;6185435;23;20410;-71
2023/06/15 04:48:47;;;;;;;3.67;3.37;;;25.40;47.90;;;;;;6158984;23;20437;-71
2023/06/15 04:51:13;;;;;;;4.07;3.70;;;25.40;47.90;;;;;;6185530;23;20450;-71
2023/06/15 04:53:42;;;;;;;3.10;2.90;;;25.50;48.10;;;;;;6185408;23;20450;-71
2023/06/15 04:56:08;;;;;;;3.53;3.23;;;25.50;48.00;;;;;;6185218;23;20498;-70
2023/06/15 04:58:34;;;;;;;3.73;3.43;;;25.50;48.10;;;;;;6159040;23;20699;-71
2023/06/15 05:00:59;;;;;;;3.60;3.30;;;25.50;48.10;;;;;;6185405;23;20379;-71
2023/06/15 05:03:25;;;;;;;3.43;3.13;;;25.50;48.00;;;;;;6185420;23;20148;-71
2023/06/15 05:05:50;;;;;;;3.37;3.07;;;25.50;48.00;;;;;;6184358;23;20176;-70
2023/06/15 05:08:16;;;;;;;3.80;3.50;;;25.50;48.00;;;;;;6184726;23;20155;-70
2023/06/15 05:10:42;;;;;;;3.33;3.03;;;25.50;48.00;;;;;;6185213;23;20489;-70
2023/06/15 05:13:07;;;;;;;3.33;2.87;;;25.50;48.00;;;;;;6183764;23;20172;-70
2023/06/15 05:15:34;;;;;;;3.93;3.13;;;25.50;48.10;;;;;;6157466;23;20183;-70
2023/06/15 05:18:00;;;;;;;4.70;3.27;;;25.50;48.10;;;;;;6184835;23;20224;-70
2023/06/15 05:20:25;;;;;;;3.07;2.77;;;25.50;48.10;;;;;;6185103;23;20418;-70
2023/06/15 05:22:51;;;;;;;3.40;3.10;;;25.60;48.30;;;;;;6185180;23;20152;-71
2023/06/15 05:25:18;;;;;;;3.17;2.87;;;25.60;48.20;;;;;;6184048;23;20258;-70
2023/06/15 05:27:43;;;;;;;3.37;3.07;;;25.60;48.20;;;;;;6184936;23;20152;-70
2023/06/15 05:30:11;;;;;;;3.03;2.83;;;25.60;48.30;;;;;;6185154;23;20429;-70
2023/06/15 05:32:38;;;;;;;3.03;2.80;;;25.60;48.30;;;;;;6158662;23;20251;-70
2023/06/15 05:35:06;;;;;;;3.10;2.80;;;25.60;48.30;;;;;;6185859;23;20446;-70
2023/06/15 05:37:35;;;;;;;3.10;2.90;;;25.60;48.30;;;;;;6185558;23;20379;-70
2023/06/15 05:40:05;;;;;;;3.63;2.87;;;25.60;48.30;;;;;;6185488;23;20372;-70
2023/06/15 05:42:31;;;;;;;3.23;2.93;;;25.60;48.30;;;;;;6159470;23;20724;-70
2023/06/15 05:44:56;;;;;;;3.30;3.07;;;25.60;48.30;;;;;;6185044;23;20391;-69
2023/06/15 05:47:22;;;;;;;3.30;3.10;;;25.60;48.40;;;;;;6184604;23;20486;-70
2023/06/15 05:49:48;;;;;;;3.60;3.30;;;25.60;48.30;;;;;;6183745;23;20159;-71
2023/06/15 05:52:14;;;;;;;4.43;3.20;;;25.60;48.30;;;;;;6184835;23;20184;-71
2023/06/15 05:54:43;;;;;;;3.07;2.87;;;25.60;48.30;;;;;;6184578;23;20167;-71
2023/06/15 05:57:10;;;;;;;3.90;3.10;;;25.60;48.30;;;;;;6184918;23;20823;-70
2023/06/15 05:59:36;;;;;;;2.60;2.40;;;25.60;48.30;;;;;;6184824;23;20371;-70
2023/06/15 06:02:02;;;;;;;3.60;3.23;;;25.60;48.30;;;;;;6184743;23;20706;-71
2023/06/15 06:04:28;;;;;;;3.00;2.80;;;25.60;48.30;;;;;;6184769;23;20905;-71
2023/06/15 06:06:54;;;;;;;3.00;2.80;;;25.60;48.30;;;;;;6185402;23;20371;-70
2023/06/15 06:09:19;;;;;;;3.47;3.17;;;25.60;48.30;;;;;;6184826;23;20751;-70
2023/06/15 06:11:47;;;;;;;3.30;3.00;;;25.60;48.20;;;;;;6184757;23;20176;-70
2023/06/15 06:14:14;;;;;;;3.77;3.47;;;25.60;48.20;;;;;;6184948;23;20233;-70
2023/06/15 06:16:39;;;;;;;3.10;2.80;;;25.60;48.30;;;;;;6184562;23;20379;-71
2023/06/15 06:19:05;;;;;;;3.43;2.73;;;25.60;48.30;;;;;;6185052;23;20363;-70
2023/06/15 06:21:32;;;;;;;3.17;2.87;;;25.70;48.90;;;;;;6185057;23;20487;-70
2023/06/15 06:23:58;;;;;;;3.10;2.80;;;25.60;48.30;;;;;;6184730;23;20152;-71
2023/06/15 06:26:23;;;;;;;3.30;3.00;;;25.60;48.30;;;;;;6184753;23;20391;-71
2023/06/15 06:28:49;;;;;;;3.33;3.03;;;25.60;48.30;;;;;;6184386;23;20378;-71
2023/06/15 06:31:15;;;;;;;2.90;2.70;;;25.70;48.30;;;;;;6184462;23;20152;-71
2023/06/15 06:33:40;;;;;;;3.40;3.10;;;25.70;48.30;;;;;;6184868;23;20162;-71
2023/06/15 06:36:08;;;;;;;3.20;2.90;;;25.70;48.40;;;;;;6184342;23;20243;-71
2023/06/15 06:38:34;;;;;;;3.20;3.00;;;25.70;48.40;;;;;;6184367;23;20148;-71
2023/06/15 06:41:00;;;;;;;3.40;3.10;;;25.60;48.30;;;;;;6184522;23;20461;-70
2023/06/15 06:43:26;;;;;;;3.00;2.70;;;25.70;48.30;;;;;;6184783;23;20383;-70
2023/06/15 06:45:51;;;;;;;3.23;2.93;;;25.70;48.40;;;;;;6184631;23;20184;-70
2023/06/15 06:48:17;;;;;;;3.23;3.03;;;25.70;48.40;;;;;;6184335;23;20151;-70
2023/06/15 06:50:43;;;;;;;3.20;2.90;;;25.70;48.50;;;;;;6184563;23;20167;-69
2023/06/15 06:53:09;;;;;;;3.33;2.83;;;25.70;48.50;;;;;;6184209;23;20182;-70
2023/06/15 06:55:35;;;;;;;3.40;3.10;;;25.60;48.40;;;;;;6184246;23;20600;-70
2023/06/15 06:58:01;;;;;;;3.40;3.10;;;25.60;48.40;;;;;;6184312;23;20410;-70
2023/06/15 07:00:28;;;;;;;3.57;3.27;;;25.70;48.50;;;;;;6184192;23;20457;-70
2023/06/15 07:02:54;;;;;;;3.77;3.47;;;25.70;49.10;;;;;;6184241;23;20148;-70
2023/06/15 07:05:20;;;;;;;3.40;3.10;;;25.70;48.60;;;;;;6184218;23;20401;-70
2023/06/15 07:07:47;;;;;;;3.13;2.77;;;25.70;48.60;;;;;;6184292;23;20379;-70
2023/06/15 07:10:12;;;;;;;4.90;3.30;;;25.70;48.50;;;;;;6184503;23;20421;-69
2023/06/15 07:12:38;;;;;;;3.87;3.57;;;25.70;48.40;;;;;;6184135;23;20905;-70
2023/06/15 07:15:05;;;;;;;3.80;3.37;;;25.60;48.30;;;;;;6184048;23;20184;-70
2023/06/15 07:17:31;;;;;;;3.73;3.30;;;25.70;48.40;;;;;;6184040;23;20437;-70
2023/06/15 07:19:56;;;;;;;4.00;3.70;;;25.70;48.40;;;;;;6183925;23;20375;-70
2023/06/15 07:22:23;;;;;;;4.10;3.13;;;25.70;48.50;;;;;;6184161;23;20173;-70
2023/06/15 07:24:49;;;;;;;3.53;3.23;;;25.60;48.40;;;;;;6184058;23;20495;-69
2023/06/15 07:27:15;;;;;;;3.60;3.30;;;25.70;48.50;;;;;;6184365;23;20386;-70
2023/06/15 07:29:41;;;;;;;3.70;3.40;;;25.70;48.50;;;;;;6184072;23;20375;-70
2023/06/15 07:32:07;;;;;;;4.13;3.73;;;25.60;48.40;;;;;;6183932;23;20167;-69
2023/06/15 07:34:33;;;;;;;3.40;3.10;;;25.60;48.50;;;;;;6184366;23;20387;-69
2023/06/15 07:36:58;;;;;;;3.27;3.00;;;25.70;48.50;;;;;;6182898;23;20591;-72
2023/06/15 07:39:24;;;;;;;3.50;2.87;;;25.60;48.50;;;;;;6183738;23;20468;-69
2023/06/15 07:41:50;;;;;;;3.73;3.30;;;25.60;48.50;;;;;;6185051;23;20190;-71
2023/06/15 07:44:15;;;;;;;3.20;2.90;;;25.60;48.50;;;;;;6185930;23;20152;-70
2023/06/15 07:46:42;;;;;;;2.90;2.70;;;25.60;48.50;;;;;;6186529;23;20166;-69
2023/06/15 07:49:07;;;;;;;3.17;2.87;;;25.60;48.50;;;;;;6185990;23;20152;-70
2023/06/15 07:51:37;;;;;;;3.23;2.93;;;25.60;48.50;;;;;;6186114;23;20442;-71
2023/06/15 07:54:02;;;;;;;3.40;3.10;;;25.60;48.50;;;;;;6186351;23;20151;-71
2023/06/15 07:56:28;;;;;;;3.50;3.10;;;25.60;48.60;;;;;;6185799;23;20506;-71
2023/06/15 07:58:54;;;;;;;3.30;3.00;;;25.60;48.60;;;;;;6185945;23;20223;-71
2023/06/15 08:01:19;;;;;;;3.33;3.03;;;25.60;48.60;;;;;;6186004;23;20152;-71
2023/06/15 08:03:45;;;;;;;2.83;2.63;;;25.70;48.70;;;;;;6185773;23;20607;-71
2023/06/15 08:06:11;;;;;;;3.10;2.80;;;25.70;48.70;;;;;;6185793;23;20171;-70
2023/06/15 08:08:37;;;;;;;3.53;3.23;;;25.60;48.60;;;;;;6185854;23;20154;-70
2023/06/15 08:11:05;;;;;;;3.30;3.00;;;25.60;48.60;;;;;;6185908;23;20156;-71
2023/06/15 08:13:31;;;;;;;3.77;3.37;;;25.60;48.60;;;;;;6159321;23;21093;-70
2023/06/15 08:15:57;;;;;;;3.00;2.70;;;25.60;48.70;;;;;;6185684;23;20395;-71
2023/06/15 08:18:23;;;;;;;3.00;2.80;;;25.60;48.70;;;;;;6185758;23;20469;-71
2023/06/15 08:20:48;;;;;;;3.40;2.83;;;25.70;48.70;;;;;;6185775;23;20371;-71
2023/06/15 08:23:15;;;;;;;3.10;2.90;;;25.70;48.70;;;;;;6185889;23;20162;-71
2023/06/15 08:25:41;;;;;;;3.50;3.20;;;25.60;48.70;;;;;;6185689;23;20176;-70
2023/06/15 08:28:07;;;;;;;3.07;2.87;;;25.70;48.80;;;;;;6185611;23;20842;-70
2023/06/15 08:30:32;;;;;;;2.77;2.53;;;25.70;48.80;;;;;;6185735;23;20375;-70
2023/06/15 08:32:58;;;;;;;2.90;2.60;;;25.60;48.80;;;;;;6185599;23;20479;-70
2023/06/15 08:35:24;;;;;;;3.67;3.37;;;25.70;48.80;;;;;;6185664;23;20171;-70
2023/06/15 08:37:50;;;;;;;4.60;3.20;;;25.70;48.90;;;;;;6185680;23;20148;-70
2023/06/15 08:40:15;;;;;;;2.93;2.30;;;25.70;48.90;;;;;;6185568;23;20851;-70
2023/06/15 08:42:41;;;;;;;3.30;3.00;;;25.60;48.80;;;;;;6185535;23;20156;-70
2023/06/15 08:45:07;;;;;;;3.43;3.13;;;25.60;48.80;;;;;;6185574;23;20167;-70
2023/06/15 08:47:36;;;;;;;2.83;2.63;;;25.60;48.80;;;;;;6159155;23;20167;-70
2023/06/15 08:50:06;;;;;;;2.70;2.50;;;25.60;48.90;;;;;;6185768;23;20375;-69
2023/06/15 08:52:33;;;;;;;3.03;2.83;;;25.60;48.80;;;;;;6185485;23;20898;-69
2023/06/15 08:55:01;;;;;;;3.50;3.20;;;25.60;48.90;;;;;;6185649;23;20813;-69
2023/06/15 08:57:28;;;;;;;2.60;2.40;;;25.70;48.90;;;;;;6185784;23;20383;-70
2023/06/15 08:59:55;;;;;;;3.07;2.77;;;25.70;48.90;;;;;;6185691;23;20471;-70
2023/06/15 09:02:22;;;;;;;3.97;3.60;;;25.70;49.50;;;;;;6185487;23;20438;-70
2023/06/15 09:04:51;;;;;;;3.07;2.77;;;25.70;48.90;;;;;;6185620;23;20461;-70
2023/06/15 09:07:21;;;;;;;3.13;2.93;;;25.70;48.90;;;;;;6185980;23;20374;-70
2023/06/15 09:10:08;;;;;;;3.63;3.33;;;25.70;48.90;;;;;;6185426;23;20407;-70
2023/06/15 09:12:34;;;;;;;3.50;2.30;;;25.70;48.90;;;;;;6185170;23;20407;-69
2023/06/15 09:14:59;;;;;;;2.77;2.57;;;25.60;48.90;;;;;;6185196;23;20402;-70
2023/06/15 09:17:28;;;;;;;3.47;3.20;;;25.60;48.90;;;;;;6158378;23;20155;-69
2023/06/15 09:19:54;;;;;;;3.30;3.00;;;25.70;49.00;;;;;;6184615;23;20159;-70
2023/06/15 09:22:19;;;;;;;2.90;2.70;;;25.60;49.00;;;;;;6185483;23;20881;-70
2023/06/15 09:24:46;;;;;;;3.30;2.90;;;25.60;49.00;;;;;;6185063;23;20178;-69
2023/06/15 09:27:15;;;;;;;2.50;2.30;;;25.70;49.00;;;;;;6185339;23;20251;-69
2023/06/15 09:30:03;;;;;;;3.30;3.00;;;25.70;49.00;;;;;;6184989;23;21015;-70
2023/06/15 09:32:29;;;;;;;3.00;2.60;;;25.70;49.00;;;;;;6184966;23;20431;-70
2023/06/15 09:34:59;;;;;;;3.00;2.80;;;25.60;49.00;;;;;;6184905;23;20399;-69
2023/06/15 09:37:28;;;;;;;2.97;2.77;;;25.70;49.10;;;;;;6185039;23;20690;-69
2023/06/15 09:39:54;;;;;;;2.83;2.63;;;25.60;49.00;;;;;;6185005;23;20406;-69
2023/06/15 09:42:29;;;;;;;3.13;2.70;;;25.70;49.10;;;;;;6158586;23;20454;-71
2023/06/15 09:45:05;;;;;;;4.13;3.83;;;25.70;49.00;;;;;;6184863;23;20258;-71
2023/06/15 09:47:31;;;;;;;3.20;2.90;;;25.70;49.10;;;;;;6185636;23;20371;-70
2023/06/15 09:49:58;;;;;;;2.80;2.60;;;25.60;49.10;;;;;;6184922;23;20380;-71
2023/06/15 09:52:25;;;;;;;3.10;2.70;;;25.70;49.10;;;;;;6184745;23;20447;-70
2023/06/15 09:54:53;;;;;;;3.27;2.97;;;25.70;49.10;;;;;;6184816;23;20485;-71
2023/06/15 09:57:19;;;;;;;3.67;3.37;;;25.70;49.10;;;;;;6184788;23;20408;-70
2023/06/15 09:59:48;;;;;;;3.30;3.00;;;25.70;49.20;;;;;;6184761;23;20376;-71
2023/06/15 10:02:17;;;;;;;3.00;2.77;;;25.70;49.10;;;;;;6184666;23;20377;-70
2023/06/15 10:04:45;;;;;;;3.47;3.17;;;25.70;49.20;;;;;;6184090;23;20402;-70
2023/06/15 10:07:12;;;;;;;3.30;3.00;;;25.70;49.20;;;;;;6184681;23;20371;-69
2023/06/15 10:09:49;;;;;;;3.43;3.13;;;25.70;49.20;;;;;;6184705;23;20375;-71
2023/06/15 10:12:25;;;;;;;3.43;3.00;;;25.70;49.10;;;;;;6184715;23;20811;-71
2023/06/15 10:15:03;;;;;;;3.40;3.10;;;25.70;49.10;;;;;;6184770;23;20406;-70
2023/06/15 10:17:32;;;;;;;3.70;3.40;;;25.70;49.20;;;;;;6184666;23;20764;-69
2023/06/15 10:20:07;;;;;;;3.10;2.80;;;25.70;49.20;;;;;;6184528;23;20832;-69
2023/06/15 10:22:34;;;;;;;3.43;2.93;;;25.70;49.20;;;;;;6158123;23;20504;-71
2023/06/15 10:25:00;;;;;;;3.30;3.00;;;25.70;49.20;;;;;;6184432;23;20399;-70
2023/06/15 10:27:26;;;;;;;3.30;3.00;;;25.70;49.20;;;;;;6184716;23;20922;-69
2023/06/15 10:30:23;;;;;;;2.90;2.70;;;25.70;49.20;;;;;;6184662;23;20672;-69
2023/06/15 10:33:04;;;;;;;3.10;2.80;;;25.70;49.20;;;;;;6177290;23;20175;-70
2023/06/15 10:35:33;;;;;;;3.27;3.07;;;25.70;49.20;;;;;;6184667;23;20423;-70
2023/06/15 10:38:08;;;;;;;3.20;3.00;;;25.70;49.30;;;;;;6184395;23;20458;-70
2023/06/15 10:40:42;;;;;;;3.53;3.23;;;25.70;49.30;;;;;;6184429;23;20343;-71
2023/06/15 10:43:07;;;;;;;3.50;3.20;;;25.70;49.20;;;;;;6183999;23;20677;-69
2023/06/15 10:45:34;;;;;;;3.07;2.87;;;25.70;49.30;;;;;;6184486;23;20418;-70
2023/06/15 10:48:01;;;;;;;3.30;3.00;;;25.70;49.30;;;;;;6184370;23;20162;-70
2023/06/15 10:50:28;;;;;;;2.60;2.40;;;25.70;49.30;;;;;;6157846;23;20777;-70
2023/06/15 10:52:55;;;;;;;2.70;2.50;;;25.70;49.90;;;;;;6184154;23;20415;-70
2023/06/15 10:55:22;;;;;;;3.23;3.00;;;25.70;49.30;;;;;;6183812;23;20417;-70
2023/06/15 10:57:48;;;;;;;3.17;2.90;;;25.70;49.30;;;;;;6184280;23;20371;-70
2023/06/15 11:00:24;;;;;;;3.30;2.43;;;25.70;49.30;;;;;;6183082;23;20437;-70
2023/06/15 11:02:54;;;;;;;3.30;3.10;;;25.70;49.30;;;;;;6184269;23;20367;-70
2023/06/15 11:05:21;;;;;;;3.23;2.93;;;25.70;49.40;;;;;;6184351;23;20712;-72
2023/06/15 11:07:51;;;;;;;2.70;2.50;;;25.70;49.40;;;;;;6184112;23;20370;-71
2023/06/15 11:10:19;;;;;;;3.30;3.10;;;25.70;49.50;;;;;;6158076;23;20430;-70
2023/06/15 11:12:47;;;;;;;3.17;2.87;;;25.70;49.40;;;;;;6183913;23;20549;-70
2023/06/15 11:15:15;;;;;;;3.43;3.13;;;25.70;49.40;;;;;;6183901;23;20398;-70
2023/06/15 11:18:03;;;;;;;2.70;2.50;;;25.70;49.40;;;;;;6183346;23;20445;-70
2023/06/15 11:20:38;;;;;;;3.70;3.20;;;25.70;49.40;;;;;;6184422;23;20431;-70
2023/06/15 11:23:12;;;;;;;4.20;3.80;;;25.70;49.40;;;;;;6183997;23;20385;-71
2023/06/15 11:25:45;;;;;;;4.10;3.53;;;25.70;49.50;;;;;;6183944;23;20394;-69
2023/06/15 11:28:15;;;;;;;4.47;4.07;;;25.70;49.50;;;;;;6183939;23;20382;-70
2023/06/15 11:30:43;;;;;;;5.80;5.20;;;25.70;49.60;;;;;;6157422;23;20383;-70
2023/06/15 11:33:13;;;;;;;6.53;5.93;;;25.70;49.60;;;;;;6183879;23;20422;-71
2023/06/15 11:35:39;;;;;;;7.60;6.07;;;25.70;49.50;;;;;;6184171;23;20735;-69
2023/06/15 11:38:08;;;;;;;6.90;6.20;;;25.70;49.50;;;;;;6183628;23;20375;-70
2023/06/15 11:40:34;;;;;;;7.70;5.80;;;25.70;49.50;;;;;;6183906;23;20449;-70
2023/06/15 11:43:02;;;;;;;12.03;9.73;;;25.70;50.10;;;;;;6183916;23;20851;-69
2023/06/15 11:45:28;;;;;;;10.00;8.87;;;25.70;49.50;;;;;;6183667;23;20396;-70
2023/06/15 11:47:54;;;;;;;8.70;6.47;;;25.70;49.50;;;;;;6183945;23;20387;-69
2023/06/15 11:50:20;;;;;;;11.50;9.63;;;25.70;49.50;;;;;;6183833;23;20776;-69
2023/06/15 11:52:47;;;;;;;9.87;8.50;;;25.70;49.40;;;;;;6183809;23;20226;-70
2023/06/15 11:55:15;;;;;;;11.30;9.47;;;25.70;49.50;;;;;;6182710;23;20801;-70
2023/06/15 11:57:44;;;;;;;11.23;9.97;;;25.70;49.50;;;;;;6184193;23;20382;-70
2023/06/15 12:00:12;;;;;;;11.97;10.20;;;25.70;49.50;;;;;;6183761;23;20373;-70
2023/06/15 12:02:42;;;;;;;11.30;9.83;;;25.70;49.50;;;;;;6183882;23;20382;-70
2023/06/15 12:05:11;;;;;;;11.53;9.63;;;25.70;49.50;;;;;;6184061;23;20782;-70
2023/06/15 12:07:38;;;;;;;10.33;9.13;;;25.70;49.50;;;;;;6184069;23;20721;-70
2023/06/15 12:10:06;;;;;;;13.83;8.67;;;25.70;49.50;;;;;;6183806;23;20430;-70
2023/06/15 12:12:33;;;;;;;10.70;8.60;;;25.70;49.50;;;;;;6183554;23;20426;-70
2023/06/15 12:15:00;;;;;;;12.00;8.63;;;25.70;49.50;;;;;;6184054;23;20406;-72
2023/06/15 12:17:28;;;;;;;12.37;9.53;;;25.70;49.50;;;;;;6184132;23;20445;-69
2023/06/15 12:20:09;;;;;;;14.20;9.87;;;25.70;49.50;;;;;;6183770;23;20379;-71
2023/06/15 12:22:36;;;;;;;10.60;9.17;;;25.70;49.50;;;;;;6183716;23;20363;-71
2023/06/15 12:25:03;;;;;;;9.63;8.57;;;25.70;49.50;;;;;;6183704;23;20395;-70
2023/06/15 12:27:31;;;;;;;8.30;7.30;;;25.70;49.50;;;;;;6184318;23;20371;-71
2023/06/15 12:30:07;;;;;;;8.47;7.47;;;25.70;49.50;;;;;;6185562;23;20383;-70
2023/06/15 12:32:33;;;;;;;9.07;8.07;;;25.70;49.40;;;;;;6185536;23;20901;-70
2023/06/15 12:34:59;;;;;;;8.97;7.93;;;25.70;49.50;;;;;;6185439;23;20402;-70
2023/06/15 12:37:24;;;;;;;8.63;7.60;;;25.70;49.50;;;;;;6185535;23;20197;-69
2023/06/15 12:39:50;;;;;;;7.20;6.50;;;25.70;49.60;;;;;;6185776;23;20598;-69
2023/06/15 12:42:20;;;;;;;8.87;7.17;;;25.70;49.50;;;;;;6185025;23;20152;-70
2023/06/15 12:44:46;;;;;;;8.00;7.20;;;25.70;49.50;;;;;;6185411;23;20176;-69
2023/06/15 12:47:11;;;;;;;6.53;5.83;;;25.70;49.50;;;;;;6185492;23;20881;-71